Time;durP1;ratioP1;P1;durP2;ratioP2;P2;SDS_P1;SDS_P2;PMS_P1;PMS_P2;Temp;Humidity;BMP_temperature;BMP_pressure;BME280_temperature;BME280_humidity;BME280_pressure;Samples;Min_cycle;Max_cycle;Signal;HPM_P1;HPM_P2
2022/06/09 00:01:31;;;;;;;3.70;2.30;;;;;;;26.35;48.91;100926.58;1775420;80;21546;-52
2022/06/09 00:04:18;;;;;;;2.80;2.37;;;;;;;26.36;49.08;100920.25;1777481;80;21490;-52
2022/06/09 00:06:53;;;;;;;2.20;1.98;;;;;;;26.38;49.31;100920.97;1771705;80;20971;-50
2022/06/09 00:09:22;;;;;;;2.83;1.77;;;;;;;26.40;49.49;100919.02;1784268;80;21628;-52
2022/06/09 00:11:50;;;;;;;3.20;1.70;;;;;;;26.43;49.67;100913.44;1771275;80;21006;-52
2022/06/09 00:14:18;;;;;;;2.02;1.75;;;;;;;26.46;49.81;100910.52;1784385;80;21517;-50
2022/06/09 00:16:46;;;;;;;4.05;1.95;;;;;;;26.46;49.92;100906.00;1769438;80;21030;-49
2022/06/09 00:19:12;;;;;;;1.67;1.57;;;;;;;26.47;50.17;100898.85;1769437;80;21031;-52
2022/06/09 00:21:39;;;;;;;4.08;2.10;;;;;;;26.49;50.37;100894.23;1775207;80;21038;-51
2022/06/09 00:24:07;;;;;;;1.87;1.60;;;;;;;26.50;50.55;100889.27;1781838;80;21014;-55
2022/06/09 00:26:34;;;;;;;4.15;1.90;;;;;;;26.52;50.69;100885.97;1776394;80;21039;-50
2022/06/09 00:29:02;;;;;;;3.50;1.60;;;;;;;26.53;50.80;100874.30;1775911;80;21022;-49
2022/06/09 00:31:29;;;;;;;3.00;2.10;;;;;;;26.55;50.89;100871.02;1773261;80;21015;-50
2022/06/09 00:33:57;;;;;;;3.10;1.70;;;;;;;26.55;51.03;100864.34;1771051;80;20986;-51
2022/06/09 00:36:24;;;;;;;3.70;1.98;;;;;;;26.55;51.21;100869.68;1773506;80;21010;-52
2022/06/09 00:38:51;;;;;;;1.85;1.60;;;;;;;26.55;51.34;100871.02;1769323;80;21538;-49
2022/06/09 00:41:18;;;;;;;2.12;1.52;;;;;;;26.53;51.39;100864.97;1772596;80;21160;-51
2022/06/09 00:43:45;;;;;;;1.90;1.70;;;;;;;26.52;51.53;100861.95;1773155;80;20995;-52
2022/06/09 00:46:17;;;;;;;2.27;1.60;;;;;;;26.51;51.73;100860.25;1770378;80;21026;-51
2022/06/09 00:48:56;;;;;;;1.98;1.50;;;;;;;26.50;51.88;100852.72;1778667;80;21074;-50
2022/06/09 00:51:37;;;;;;;1.87;1.62;;;;;;;26.49;51.96;100848.86;1776787;80;20986;-52
2022/06/09 00:54:20;;;;;;;1.62;1.52;;;;;;;26.48;52.01;100847.19;1776515;80;20967;-50
2022/06/09 00:56:57;;;;;;;2.95;1.65;;;;;;;26.46;52.07;100842.47;1782481;80;21506;-50
2022/06/09 00:59:26;;;;;;;1.77;1.65;;;;;;;26.43;52.20;100833.38;1736319;82;21035;-50
2022/06/09 01:01:55;;;;;;;2.60;1.75;;;;;;;26.41;52.35;100835.34;1736445;82;21046;-51
2022/06/09 01:04:22;;;;;;;4.60;1.40;;;;;;;26.39;52.41;100831.95;1699609;83;21590;-49
2022/06/09 01:06:52;;;;;;;2.00;1.47;;;;;;;26.38;52.36;100835.59;1711441;83;21040;-50
2022/06/09 01:09:23;;;;;;;4.17;1.87;;;;;;;26.36;52.35;100836.20;1702411;83;21046;-51
2022/06/09 01:11:54;;;;;;;2.37;1.60;;;;;;;26.34;52.36;100824.34;1622487;88;21018;-49
2022/06/09 01:14:24;;;;;;;1.72;1.47;;;;;;;26.32;52.54;100824.11;1620625;88;21025;-49
2022/06/09 01:17:15;;;;;;;2.00;1.55;;;;;;;26.30;52.48;100828.25;1621530;88;20978;-48
2022/06/09 01:20:15;;;;;;;3.45;1.55;;;;;;;26.27;52.21;100828.53;1619256;88;21097;-52
2022/06/09 01:23:02;;;;;;;1.30;1.20;;;;;;;26.26;51.74;100836.64;1620888;88;21079;-49
2022/06/09 01:26:09;;;;;;;2.70;1.57;;;;;;;26.23;51.26;100838.26;1620391;88;21003;-52
2022/06/09 01:29:09;;;;;;;5.03;1.40;;;;;;;26.21;50.79;100838.88;1627385;87;21003;-55
2022/06/09 01:32:14;;;;;;;2.08;1.60;;;;;;;26.19;50.49;100837.69;1624247;87;21049;-51
2022/06/09 01:35:23;;;;;;;3.25;1.82;;;;;;;26.16;50.16;100835.27;1626576;87;21554;-50
2022/06/09 01:37:54;;;;;;;2.20;1.65;;;;;;;26.12;49.84;100831.64;1629355;87;21050;-51
2022/06/09 01:40:23;;;;;;;3.15;1.60;;;;;;;26.07;49.56;100830.70;1623791;87;22042;-50
2022/06/09 01:42:52;;;;;;;1.47;1.37;;;;;;;26.03;49.52;100832.41;1625625;88;21173;-52
2022/06/09 01:45:33;;;;;;;2.30;1.70;;;;;;;25.98;49.61;100826.13;1614124;88;21107;-51
2022/06/09 01:48:07;;;;;;;;;;;;;;;25.95;49.73;100829.52;1553204;91;21115;-49
2022/06/09 01:50:44;;;;;;;1.72;1.52;;;;;;;25.91;49.68;100827.61;1548925;91;20148;-50
2022/06/09 01:53:28;;;;;;;2.58;1.80;;;;;;;25.88;49.73;100831.03;1558075;91;21166;-51
2022/06/09 01:56:03;;;;;;;4.80;2.52;;;;;;;25.86;49.71;100836.50;1541103;91;21118;-50
2022/06/09 01:58:34;;;;;;;2.77;2.17;;;;;;;25.85;50.30;100834.79;1575333;90;21127;-50
2022/06/09 02:01:03;;;;;;;3.75;2.95;;;;;;;25.84;50.82;100831.27;1580987;90;21124;-51
2022/06/09 02:03:34;;;;;;;3.85;2.58;;;;;;;25.82;50.85;100833.22;1553861;91;21083;-52
2022/06/09 02:06:00;;;;;;;4.60;2.87;;;;;;;25.82;50.79;100834.55;1561082;91;21066;-52
2022/06/09 02:08:31;;;;;;;4.37;3.00;;;;;;;25.81;50.81;100831.55;1538181;91;21079;-52
2022/06/09 02:11:00;;;;;;;4.05;2.85;;;;;;;25.83;50.89;100838.07;1552595;92;21081;-50
2022/06/09 02:13:36;;;;;;;3.37;2.83;;;;;;;25.82;50.95;100837.22;1554753;92;21084;-50
2022/06/09 02:16:04;;;;;;;3.72;2.70;;;;;;;25.80;51.10;100828.50;1554704;92;21615;-50
2022/06/09 02:18:38;;;;;;;4.62;3.22;;;;;;;25.79;51.27;100832.16;1554753;92;21049;-53
2022/06/09 02:21:19;;;;;;;5.15;2.85;;;;;;;25.79;51.30;100830.83;1575464;90;21111;-50
2022/06/09 02:23:48;;;;;;;4.03;3.00;;;;;;;25.79;50.99;100838.83;1580093;90;21078;-53
2022/06/09 02:26:16;;;;;;;6.30;3.12;;;;;;;25.76;50.52;100837.73;1583624;89;21081;-50
2022/06/09 02:28:43;;;;;;;6.20;3.33;;;;;;;25.76;50.23;100831.07;1583748;91;21061;-51
2022/06/09 02:31:10;;;;;;;6.22;3.60;;;;;;;25.75;50.72;100834.73;1583680;90;21089;-55
2022/06/09 02:33:38;;;;;;;3.77;3.05;;;;;;;25.77;50.91;100837.25;1583948;90;21035;-53
2022/06/09 02:36:05;;;;;;;4.90;2.95;;;;;;;25.77;51.12;100834.59;1583651;90;21142;-53
2022/06/09 02:38:32;;;;;;;5.53;3.15;;;;;;;25.74;51.20;100833.02;1584104;91;21070;-50
2022/06/09 02:40:59;;;;;;;3.67;3.15;;;;;;;25.73;50.91;100841.16;1593607;89;21086;-51
2022/06/09 02:43:26;;;;;;;4.40;3.17;;;;;;;25.71;50.75;100849.28;1595053;90;21105;-51
2022/06/09 02:45:53;;;;;;;4.65;3.58;;;;;;;25.68;50.33;100849.52;1659273;86;21549;-51
2022/06/09 02:48:20;;;;;;;4.72;3.65;;;;;;;25.66;49.15;100852.80;1660165;86;21038;-49
2022/06/09 02:50:48;;;;;;;4.70;4.05;;;;;;;25.64;48.38;100851.23;1660417;86;21058;-52
2022/06/09 02:53:15;;;;;;;8.05;4.37;;;;;;;25.60;47.88;100862.64;1660375;86;21590;-50
2022/06/09 02:55:42;;;;;;;6.72;4.10;;;;;;;25.57;47.63;100864.23;1714128;82;21047;-49
2022/06/09 02:58:09;;;;;;;4.30;3.33;;;;;;;25.58;47.62;100869.91;1739531;82;21083;-50
2022/06/09 03:00:35;;;;;;;4.72;4.10;;;;;;;25.57;47.36;100872.23;1743788;82;21050;-53
2022/06/09 03:03:06;;;;;;;7.05;4.53;;;;;;;25.55;46.99;100879.98;1735772;82;21035;-53
2022/06/09 03:05:35;;;;;;;5.58;4.53;;;;;;;25.52;46.96;100878.41;1752772;82;21542;-52
2022/06/09 03:08:04;;;;;;;4.40;3.70;;;;;;;25.50;46.94;100885.69;1736846;82;21035;-50
2022/06/09 03:10:31;;;;;;;6.42;4.50;;;;;;;25.48;46.92;100884.11;1736089;82;20979;-55
2022/06/09 03:12:58;;;;;;;5.58;3.85;;;;;;;25.48;46.91;100886.30;1738249;82;21073;-52
2022/06/09 03:15:26;;;;;;;6.12;4.17;;;;;;;25.47;46.76;100889.91;1746737;82;21015;-50
2022/06/09 03:17:54;;;;;;;7.33;3.92;;;;;;;25.46;46.52;100882.91;1739653;82;20999;-50
2022/06/09 03:20:25;;;;;;;4.78;4.15;;;;;;;25.44;46.15;100888.84;1752014;82;21118;-50
2022/06/09 03:22:52;;;;;;;4.45;3.50;;;;;;;25.44;45.63;100888.84;1736301;82;22057;-50
2022/06/09 03:25:19;;;;;;;6.60;4.08;;;;;;;25.43;45.33;100889.80;1739143;82;21043;-51
2022/06/09 03:27:47;;;;;;;5.67;3.70;;;;;;;25.43;45.01;100891.65;1728978;82;21019;-51
2022/06/09 03:30:15;;;;;;;7.72;3.83;;;;;;;25.42;44.83;100886.80;1736751;82;21022;-49
2022/06/09 03:32:41;;;;;;;5.40;3.67;;;;;;;25.43;44.78;100880.48;1750157;82;21046;-51
2022/06/09 03:35:09;;;;;;;7.33;3.52;;;;;;;25.44;44.83;100870.20;1737396;82;21090;-52
2022/06/09 03:37:35;;;;;;;3.35;3.05;;;;;;;25.50;45.00;100870.17;1737659;82;20990;-50
2022/06/09 03:40:04;;;;;;;4.92;3.52;;;;;;;25.62;45.05;100874.49;1749532;81;21129;-51
2022/06/09 03:42:32;;;;;;;5.20;3.42;;;;;;;25.80;44.74;100867.16;1774979;81;21546;-48
2022/06/09 03:44:59;;;;;;;5.45;3.70;;;;;;;26.04;44.48;100876.75;1763399;81;21062;-51
2022/06/09 03:47:26;;;;;;;5.15;3.40;;;;;;;26.31;44.12;100874.46;1765927;81;21089;-49
2022/06/09 03:49:53;;;;;;;5.53;3.50;;;;;;;26.61;43.72;100866.48;1770400;81;21007;-51
2022/06/09 03:52:20;;;;;;;3.95;3.12;;;;;;;26.93;43.30;100869.91;1763833;80;21531;-51
2022/06/09 03:54:48;;;;;;;5.45;3.87;;;;;;;27.28;42.95;100868.97;1779046;80;21054;-52
2022/06/09 03:57:15;;;;;;;4.15;2.90;;;;;;;27.67;42.36;100866.38;1761229;81;21026;-50
2022/06/09 03:59:41;;;;;;;3.98;3.12;;;;;;;28.04;41.81;100871.40;1765834;81;21046;-50
2022/06/09 04:02:09;;;;;;;6.22;3.65;;;;;;;28.41;41.24;100870.99;1775610;81;21035;-52
2022/06/09 04:04:35;;;;;;;6.03;3.62;;;;;;;28.66;40.61;100875.75;1764369;81;21027;-49
2022/06/09 04:07:03;;;;;;;6.25;3.83;;;;;;;28.75;40.48;100874.00;1771525;81;21047;-53
2022/06/09 04:09:30;;;;;;;4.40;3.60;;;;;;;28.73;40.56;100882.19;1768434;81;21862;-52
2022/06/09 04:11:59;;;;;;;5.20;3.75;;;;;;;28.63;40.95;100878.70;1770943;81;21003;-51
2022/06/09 04:14:27;;;;;;;4.87;3.72;;;;;;;28.52;41.26;100882.85;1762330;81;21007;-53
2022/06/09 04:16:55;;;;;;;5.60;3.27;;;;;;;28.40;41.55;100885.88;1776208;81;20970;-50
2022/06/09 04:19:24;;;;;;;4.08;3.58;;;;;;;28.28;41.96;100885.16;1745369;81;21085;-51
2022/06/09 04:21:51;;;;;;;6.40;4.08;;;;;;;28.15;42.46;100885.98;1767994;80;21026;-50
2022/06/09 04:24:18;;;;;;;5.12;4.05;;;;;;;28.03;42.86;100885.75;1771221;81;21038;-51
2022/06/09 04:26:45;;;;;;;4.20;3.27;;;;;;;27.93;43.16;100887.55;1775308;81;20985;-50
2022/06/09 04:29:12;;;;;;;4.65;3.45;;;;;;;27.81;43.71;100885.52;1762672;81;21058;-50
2022/06/09 04:31:41;;;;;;;3.80;3.17;;;;;;;27.72;44.28;100889.54;1777885;81;21061;-51
2022/06/09 04:34:08;;;;;;;4.30;3.50;;;;;;;27.64;44.93;100896.04;1761833;81;21021;-51
2022/06/09 04:36:35;;;;;;;6.37;3.72;;;;;;;27.55;45.37;100899.56;1764144;81;21030;-50
2022/06/09 04:39:04;;;;;;;4.08;3.67;;;;;;;27.45;45.79;100905.39;1765463;81;21035;-52
2022/06/09 04:41:31;;;;;;;4.10;3.70;;;;;;;27.37;46.23;100898.89;1752933;80;21081;-51
2022/06/09 04:43:58;;;;;;;4.65;3.70;;;;;;;27.29;46.58;100890.68;1766574;81;21042;-53
2022/06/09 04:46:25;;;;;;;26.65;5.67;;;;;;;27.25;46.85;100901.77;1776557;80;21471;-49
2022/06/09 04:48:52;;;;;;;7.45;3.80;;;;;;;27.27;47.01;100906.48;1762439;81;21003;-51
2022/06/09 04:51:19;;;;;;;5.60;4.30;;;;;;;27.24;47.28;100907.59;1764072;81;21031;-51
2022/06/09 04:53:48;;;;;;;4.75;3.67;;;;;;;27.24;47.55;100913.45;1764114;81;21004;-51
2022/06/09 04:56:17;;;;;;;5.75;4.55;;;;;;;27.25;48.01;100918.66;1761453;81;21027;-53
2022/06/09 04:58:44;;;;;;;4.92;3.72;;;;;;;27.27;48.43;100924.70;1760900;80;21448;-52
2022/06/09 05:01:29;;;;;;;6.42;4.03;;;;;;;27.31;48.79;100919.92;1760669;81;21042;-51
2022/06/09 05:03:56;;;;;;;5.00;3.72;;;;;;;27.36;49.20;100918.59;1771501;80;21613;-53
2022/06/09 05:06:25;;;;;;;5.67;3.67;;;;;;;27.42;49.50;100922.53;1762316;80;21069;-50
2022/06/09 05:08:55;;;;;;;3.62;3.30;;;;;;;27.48;49.77;100919.80;1772729;80;21003;-52
2022/06/09 05:11:24;;;;;;;6.20;3.20;;;;;;;27.54;49.95;100920.09;1757703;80;21097;-50
2022/06/09 05:13:52;;;;;;;4.30;2.75;;;;;;;27.61;50.12;100921.73;1774739;81;21078;-54
2022/06/09 05:16:19;;;;;;;6.15;2.62;;;;;;;27.65;50.31;100923.14;1765916;81;20948;-54
2022/06/09 05:18:46;;;;;;;4.15;3.00;;;;;;;27.68;50.42;100918.36;1753849;80;20987;-52
2022/06/09 05:21:13;;;;;;;4.85;3.22;;;;;;;27.73;49.77;100924.15;1753254;80;20972;-53
2022/06/09 05:23:41;;;;;;;4.33;3.35;;;;;;;27.81;49.24;100932.32;1757919;80;21032;-50
2022/06/09 05:26:08;;;;;;;3.85;2.92;;;;;;;27.87;48.56;100925.56;1753532;81;21092;-50
2022/06/09 05:28:35;;;;;;;4.17;2.85;;;;;;;27.90;48.08;100929.30;1764860;80;21011;-49
2022/06/09 05:31:02;;;;;;;2.47;1.90;;;;;;;27.93;47.20;100926.33;1765617;80;21019;-51
2022/06/09 05:33:30;;;;;;;4.12;1.80;;;;;;;27.98;46.63;100930.81;1765205;81;21499;-51
2022/06/09 05:35:57;;;;;;;2.80;1.80;;;;;;;28.03;46.51;100924.53;1761944;81;21002;-52
2022/06/09 05:46:43;;;;;;;1.92;1.67;;;;;;;28.36;45.99;100929.97;1762062;81;21606;-52
2022/06/09 05:49:09;;;;;;;2.77;1.50;;;;;;;28.47;46.03;100926.62;1774830;81;21110;-50
2022/06/09 05:51:37;;;;;;;5.78;1.72;;;;;;;28.58;45.83;100916.29;1762134;81;21061;-50
2022/06/09 05:54:04;;;;;;;5.12;1.85;;;;;;;28.70;45.93;100905.75;1764649;81;21027;-49
2022/06/09 05:56:31;;;;;;;2.55;1.30;;;;;;;28.82;45.98;100909.94;1775872;81;21049;-52
2022/06/09 05:58:59;;;;;;;4.28;1.47;;;;;;;28.95;45.54;100908.60;1762490;81;20983;-51
2022/06/09 06:01:27;;;;;;;2.02;1.40;;;;;;;29.07;45.60;100903.06;1766917;81;21509;-48
2022/06/09 06:03:53;;;;;;;4.50;2.20;;;;;;;29.19;45.33;100908.61;1764391;81;21023;-50
2022/06/09 06:06:36;;;;;;;3.10;1.57;;;;;;;29.24;44.81;100911.70;1766292;81;21066;-54
2022/06/09 06:09:14;;;;;;;4.55;1.77;;;;;;;29.24;44.82;100911.70;1761837;81;21031;-51
2022/06/09 06:11:42;;;;;;;4.55;1.90;;;;;;;29.22;45.15;100903.81;1761099;81;21633;-49
2022/06/09 06:14:10;;;;;;;3.47;1.70;;;;;;;29.19;45.41;100897.89;1765848;81;21061;-51
2022/06/09 06:16:37;;;;;;;2.77;1.95;;;;;;;29.17;45.58;100899.88;1764608;81;21019;-55
2022/06/09 06:19:08;;;;;;;3.70;1.95;;;;;;;29.17;45.59;100899.39;1762392;81;20964;-52
2022/06/09 06:21:37;;;;;;;4.35;1.67;;;;;;;29.20;45.57;100899.11;1765345;81;21012;-52
2022/06/09 06:24:06;;;;;;;4.40;1.98;;;;;;;29.27;45.68;100900.66;1771618;81;21391;-49
2022/06/09 06:26:33;;;;;;;2.55;1.70;;;;;;;29.35;45.48;100904.78;1774699;81;21003;-51
2022/06/09 06:29:01;;;;;;;4.92;1.70;;;;;;;29.38;45.30;100903.16;1775602;81;21014;-51
2022/06/09 06:31:28;;;;;;;4.30;1.70;;;;;;;29.38;45.36;100911.20;1764889;81;21506;-55
2022/06/09 06:33:55;;;;;;;3.20;1.60;;;;;;;29.35;45.30;100907.45;1759941;80;21554;-49
2022/06/09 06:36:21;;;;;;;3.12;1.40;;;;;;;29.32;45.33;100909.11;1768215;80;20975;-52
2022/06/09 06:38:51;;;;;;;4.53;1.92;;;;;;;29.26;45.44;100909.23;1763126;80;21511;-52
2022/06/09 06:41:18;;;;;;;4.80;1.90;;;;;;;29.21;45.62;100914.66;1772611;81;21050;-53
2022/06/09 06:43:46;;;;;;;3.02;1.65;;;;;;;29.12;45.94;100914.20;1761165;81;21034;-49
2022/06/09 06:46:14;;;;;;;3.27;1.57;;;;;;;29.05;46.20;100914.43;1774786;81;21071;-51
2022/06/09 06:48:41;;;;;;;4.28;1.90;;;;;;;28.96;46.42;100914.33;1764579;81;21065;-52
2022/06/09 06:51:07;;;;;;;4.25;1.72;;;;;;;28.90;46.65;100917.59;1765963;80;21026;-52
2022/06/09 06:53:35;;;;;;;3.80;1.82;;;;;;;28.86;46.78;100918.87;1760982;81;20992;-49
2022/06/09 06:56:03;;;;;;;2.75;1.70;;;;;;;28.81;46.94;100918.46;1761398;81;20995;-52
2022/06/09 06:58:30;;;;;;;3.50;1.60;;;;;;;28.78;47.24;100924.13;1779360;81;20963;-51
2022/06/09 07:00:58;;;;;;;4.00;1.90;;;;;;;28.77;47.46;100916.24;1774948;81;21054;-52
2022/06/09 07:03:25;;;;;;;3.83;1.55;;;;;;;28.82;47.36;100921.50;1774598;81;20987;-55
2022/06/09 07:05:52;;;;;;;2.25;1.60;;;;;;;28.90;47.23;100916.25;1777500;81;21010;-51
2022/06/09 07:08:23;;;;;;;5.28;2.05;;;;;;;29.02;46.88;100915.56;1758703;81;21104;-50
2022/06/09 07:10:49;;;;;;;2.65;1.45;;;;;;;29.16;46.60;100911.08;1778839;81;21061;-52
2022/06/09 07:13:16;;;;;;;4.17;1.75;;;;;;;29.28;46.23;100913.09;1776051;81;21514;-49
2022/06/09 07:15:44;;;;;;;3.20;1.47;;;;;;;29.36;46.06;100916.72;1770118;81;20995;-49
2022/06/09 07:18:12;;;;;;;3.55;1.50;;;;;;;29.42;45.50;100920.63;1764366;81;21011;-54
2022/06/09 07:20:39;;;;;;;3.83;1.80;;;;;;;29.44;44.92;100914.61;1763623;81;21030;-52
2022/06/09 07:23:06;;;;;;;4.00;1.57;;;;;;;29.48;45.38;100917.34;1761285;81;20980;-53
2022/06/09 07:25:33;;;;;;;2.25;1.60;;;;;;;29.52;45.26;100918.73;1761121;81;20975;-51
2022/06/09 07:28:00;;;;;;;5.00;1.75;;;;;;;29.52;45.25;100916.89;1763283;81;21587;-53
2022/06/09 07:30:27;;;;;;;4.58;1.70;;;;;;;29.51;45.41;100919.73;1776357;81;21066;-49
2022/06/09 07:32:55;;;;;;;4.92;1.90;;;;;;;29.50;45.71;100918.03;1776203;81;21465;-50
2022/06/09 07:35:25;;;;;;;5.15;1.85;;;;;;;29.51;45.68;100906.33;1762434;81;21010;-49
2022/06/09 07:37:52;;;;;;;2.63;1.53;;;;;;;29.47;45.55;100911.65;1761525;81;20995;-51
2022/06/09 07:40:21;;;;;;;3.10;1.72;;;;;;;29.40;45.41;100907.87;1775843;80;21046;-50
2022/06/09 07:42:49;;;;;;;2.50;1.60;;;;;;;29.32;45.40;100901.08;1773832;80;21097;-51
2022/06/09 07:45:16;;;;;;;1.90;1.60;;;;;;;29.25;45.61;100903.50;1779574;80;21022;-52
2022/06/09 07:47:43;;;;;;;4.65;1.70;;;;;;;29.20;45.40;100902.27;1778593;80;21509;-51
2022/06/09 07:50:11;;;;;;;4.00;1.80;;;;;;;29.11;45.38;100895.08;1772449;80;21598;-49
2022/06/09 07:52:39;;;;;;;3.55;1.60;;;;;;;29.05;45.29;100895.67;1772290;80;20991;-51
2022/06/09 07:55:08;;;;;;;2.25;1.42;;;;;;;28.96;45.00;100898.25;1762795;80;20983;-49
2022/06/09 07:57:35;;;;;;;5.20;1.70;;;;;;;28.88;44.81;100888.77;1777707;80;21516;-52
2022/06/09 08:00:05;;;;;;;3.70;1.35;;;;;;;28.80;44.68;100894.02;1779145;80;21038;-52
2022/06/09 08:02:34;;;;;;;3.75;1.20;;;;;;;28.73;44.76;100891.56;1779174;80;21027;-50
2022/06/09 08:05:01;;;;;;;4.70;1.95;;;;;;;28.66;44.86;100894.98;1773565;80;21023;-49
2022/06/09 08:07:28;;;;;;;4.00;1.50;;;;;;;28.59;45.19;100894.72;1771929;80;21030;-50
2022/06/09 08:09:54;;;;;;;2.15;1.30;;;;;;;28.55;44.89;100910.69;1778342;80;21034;-55
2022/06/09 08:12:22;;;;;;;1.95;1.30;;;;;;;28.52;44.87;100902.93;1771669;80;21034;-51
2022/06/09 08:14:49;;;;;;;2.30;1.40;;;;;;;28.50;44.75;100902.23;1769820;80;21087;-51
2022/06/09 08:17:17;;;;;;;3.02;1.50;;;;;;;28.46;44.87;100899.49;1772986;80;21026;-51
2022/06/09 08:19:46;;;;;;;3.92;1.40;;;;;;;28.45;45.05;100903.17;1784120;80;21042;-50
2022/06/09 08:22:13;;;;;;;3.70;1.65;;;;;;;28.42;45.36;100907.46;1782955;80;21064;-53
2022/06/09 08:24:39;;;;;;;3.58;1.70;;;;;;;28.41;45.67;100907.62;1770526;80;21011;-50
2022/06/09 08:27:06;;;;;;;5.25;1.45;;;;;;;28.39;45.84;100913.61;1769207;80;21495;-51
2022/06/09 08:29:33;;;;;;;1.85;1.40;;;;;;;28.37;45.99;100911.08;1770881;80;21508;-51
2022/06/09 08:32:00;;;;;;;3.22;1.47;;;;;;;28.36;46.30;100907.22;1771573;80;21526;-50
2022/06/09 08:34:27;;;;;;;4.53;1.77;;;;;;;28.35;46.56;100909.05;1770721;80;21482;-49
2022/06/09 08:36:55;;;;;;;3.87;1.60;;;;;;;28.36;46.64;100912.05;1776761;80;21010;-49
2022/06/09 08:39:22;;;;;;;2.40;1.40;;;;;;;28.38;46.16;100915.43;1774922;80;20979;-53
2022/06/09 08:42:07;;;;;;;2.87;1.65;;;;;;;28.41;45.90;100923.67;1756869;80;20987;-52
2022/06/09 08:44:54;;;;;;;2.83;1.42;;;;;;;28.44;46.08;100921.55;1707273;83;21053;-50
2022/06/09 08:47:38;;;;;;;2.58;1.67;;;;;;;28.48;46.22;100930.98;1672218;85;21054;-51
2022/06/09 08:50:24;;;;;;;5.53;1.85;;;;;;;28.49;45.81;100928.67;1615827;88;21565;-49
2022/06/09 08:52:59;;;;;;;2.87;1.37;;;;;;;28.48;46.05;100932.31;1615268;88;21066;-49
2022/06/09 08:55:48;;;;;;;8.45;2.30;;;;;;;28.48;46.08;100926.14;1613132;88;21147;-48
2022/06/09 08:58:26;;;;;;;3.35;1.77;;;;;;;28.47;45.85;100925.29;1557452;92;21128;-48
2022/06/09 09:01:25;;;;;;;2.92;1.37;;;;;;;28.45;45.41;100926.41;1507482;95;21121;-52
2022/06/09 09:04:21;;;;;;;2.72;1.60;;;;;;;28.39;45.10;100932.34;1508436;95;21633;-52
2022/06/09 09:07:01;;;;;;;3.70;1.92;;;;;;;28.33;45.36;100943.62;1506185;95;21135;-50
2022/06/09 09:09:31;;;;;;;2.85;1.55;;;;;;;28.26;45.86;100958.55;1423318;99;21133;-52
2022/06/09 09:12:44;;;;;;;5.10;1.60;;;;;;;28.19;45.72;100972.48;1441357;99;21899;-52
2022/06/09 09:15:33;;;;;;;3.12;2.27;;;;;;;28.10;45.97;100969.33;1431558;99;21655;-52
2022/06/09 09:18:28;;;;;;;2.27;1.30;;;;;;;28.01;46.48;100987.55;1379722;104;21125;-50
2022/06/09 09:21:17;;;;;;;3.45;1.50;;;;;;;27.93;46.48;100994.54;1398135;102;21215;-50
2022/06/09 09:24:11;;;;;;;2.98;1.40;;;;;;;27.88;46.79;101003.48;1381479;104;21221;-53
2022/06/09 09:26:48;;;;;;;1.80;1.25;;;;;;;27.84;47.14;101003.41;1379597;104;21160;-52
2022/06/09 09:29:35;;;;;;;4.08;1.52;;;;;;;27.81;47.40;101006.34;1378047;104;21607;-50
2022/06/09 09:32:12;;;;;;;3.17;1.70;;;;;;;27.78;47.32;100994.59;1353638;106;21211;-53
2022/06/09 09:34:42;;;;;;;3.85;1.20;;;;;;;27.75;47.35;100998.88;1350626;106;21207;-50
2022/06/09 09:37:38;;;;;;;1.67;1.30;;;;;;;27.70;47.08;100993.11;1352250;105;21143;-51
2022/06/09 09:40:39;;;;;;;1.50;0.93;;;;;;;27.66;47.15;100984.97;1359850;105;21149;-49
2022/06/09 09:43:11;;;;;;;1.65;1.00;;;;;;;27.62;46.80;100990.24;1369973;102;21114;-49
2022/06/09 09:45:43;;;;;;;1.75;1.15;;;;;;;27.59;46.72;100989.19;1354784;106;21133;-51
2022/06/09 09:48:23;;;;;;;1.72;1.00;;;;;;;27.57;46.73;100995.17;1357416;104;21153;-54
2022/06/09 09:51:09;;;;;;;2.70;1.30;;;;;;;27.56;47.06;100992.13;1357774;106;21157;-50
2022/06/09 09:53:56;;;;;;;2.37;1.52;;;;;;;27.54;47.26;100988.26;1355816;106;21644;-49
2022/06/09 09:56:33;;;;;;;3.35;1.80;;;;;;;27.51;47.19;100985.02;1340084;105;21149;-52
2022/06/09 09:59:03;;;;;;;2.12;1.00;;;;;;;27.50;47.41;100974.81;1361034;105;21266;-50
2022/06/09 10:10:16;;;;;;;5.55;2.00;;;;;;;27.46;47.82;100981.89;1282897;110;21724;-50
2022/06/09 10:12:44;;;;;;;4.60;2.00;;;;;;;27.48;48.08;100968.76;1276847;111;21229;-51
2022/06/09 10:15:15;;;;;;;6.05;1.70;;;;;;;27.52;48.04;100961.30;1295314;110;21190;-50
2022/06/09 10:18:02;;;;;;;10.08;1.85;;;;;;;27.58;48.04;100956.74;1308422;110;21723;-51
2022/06/09 10:20:41;;;;;;;4.17;1.57;;;;;;;27.65;47.94;100953.41;1310600;109;21184;-52
2022/06/09 10:23:19;;;;;;;7.33;1.75;;;;;;;27.75;47.26;100953.41;1299332;110;21228;-52
2022/06/09 10:26:01;;;;;;;5.58;2.30;;;;;;;27.83;47.03;100946.88;1314897;109;21655;-52
2022/06/09 10:28:37;;;;;;;4.85;1.40;;;;;;;27.90;46.75;100941.34;1318172;109;21144;-51
2022/06/09 10:31:55;;;;;;;4.55;2.30;;;;;;;27.96;46.68;100932.30;1329520;106;21687;-50
2022/06/09 10:34:48;;;;;;;5.35;2.17;;;;;;;28.01;46.34;100937.20;1363192;105;21196;-51
2022/06/09 10:37:41;;;;;;;5.08;1.72;;;;;;;28.03;46.16;100939.25;1399175;101;21178;-49
2022/06/09 10:40:44;;;;;;;6.85;1.87;;;;;;;28.03;46.18;100927.21;1401368;101;21145;-51
2022/06/09 10:43:41;;;;;;;2.75;1.40;;;;;;;28.02;46.00;100926.88;1442205;97;21609;-55
2022/06/09 10:46:28;;;;;;;2.50;1.10;;;;;;;28.01;46.25;100915.81;1548091;92;21092;-52
2022/06/09 10:55:14;;;;;;;2.20;1.25;;;;;;;28.08;45.84;100919.63;1547405;92;21444;-52
2022/06/09 10:58:11;;;;;;;2.27;1.12;;;;;;;28.15;45.89;100914.07;1586872;88;21538;-50
2022/06/09 11:00:47;;;;;;;5.37;1.80;;;;;;;28.23;45.34;100927.58;1624521;88;21050;-50
2022/06/09 11:03:21;;;;;;;4.25;1.62;;;;;;;28.29;45.00;100943.07;1636493;85;21513;-48
2022/06/09 11:06:17;;;;;;;3.85;1.57;;;;;;;28.34;45.11;100948.00;1633982;88;21122;-53
2022/06/09 11:09:16;;;;;;;4.83;1.75;;;;;;;28.37;45.11;100951.23;1629203;88;21094;-49
2022/06/09 11:12:17;;;;;;;4.87;1.70;;;;;;;28.38;45.15;100955.58;1596278;90;21049;-51
2022/06/09 11:15:11;;;;;;;4.13;1.10;;;;;;;28.37;45.36;100941.86;1600376;90;21073;-51
2022/06/09 11:17:57;;;;;;;2.92;1.20;;;;;;;28.33;45.29;100941.80;1629885;88;21075;-51
2022/06/09 11:20:50;;;;;;;3.27;1.45;;;;;;;28.31;45.23;100933.06;1633954;88;21097;-51
2022/06/09 11:23:42;;;;;;;5.03;1.40;;;;;;;28.28;45.19;100932.00;1600595;89;21082;-49
2022/06/09 11:26:39;;;;;;;4.35;1.42;;;;;;;28.28;44.70;100927.12;1564766;91;21065;-50
2022/06/09 11:29:42;;;;;;;2.62;1.80;;;;;;;28.28;44.60;100930.66;1554659;91;21071;-51
2022/06/09 11:32:38;;;;;;;1.57;1.05;;;;;;;28.29;44.48;100931.03;1552584;91;21089;-52
2022/06/09 11:35:39;;;;;;;1.92;1.02;;;;;;;28.29;44.21;100944.41;1558329;90;21078;-55
2022/06/09 11:38:26;;;;;;;3.02;1.42;;;;;;;28.31;44.49;100943.77;1560488;90;21581;-54
2022/06/09 11:41:26;;;;;;;4.15;1.20;;;;;;;28.33;44.65;100939.13;1604633;89;21145;-51
2022/06/09 11:44:14;;;;;;;1.80;1.40;;;;;;;28.36;44.59;100945.51;1577801;90;21112;-50
2022/06/09 11:46:42;;;;;;;1.75;0.98;;;;;;;28.42;44.42;100954.30;1574138;90;21547;-52
2022/06/09 11:49:37;;;;;;;2.00;1.10;;;;;;;28.48;44.30;100951.05;1570481;90;21532;-50
2022/06/09 11:52:07;;;;;;;2.05;1.30;;;;;;;28.55;44.27;100952.19;1532713;92;21192;-51
2022/06/09 11:54:56;;;;;;;1.85;1.30;;;;;;;28.64;44.46;100952.70;1543869;91;21055;-50
2022/06/09 11:57:37;;;;;;;2.65;1.40;;;;;;;28.73;44.49;100945.61;1546447;91;21079;-51
2022/06/09 12:00:22;;;;;;;1.72;1.00;;;;;;;28.85;43.83;100947.98;1551654;92;21142;-52
2022/06/09 12:03:22;;;;;;;2.25;1.07;;;;;;;28.93;43.64;100944.08;1609780;87;21062;-49
2022/06/09 12:06:04;;;;;;;2.40;0.90;;;;;;;29.02;43.55;100949.05;1640079;87;21097;-50
2022/06/09 12:08:49;;;;;;;1.52;1.00;;;;;;;29.09;43.21;100939.94;1602983;89;21508;-53
2022/06/09 12:11:18;;;;;;;3.67;1.45;;;;;;;29.16;43.21;100947.78;1612956;89;21048;-50
2022/06/09 12:14:03;;;;;;;1.60;1.20;;;;;;;29.21;42.94;100945.48;1613270;89;21543;-52
2022/06/09 12:17:05;;;;;;;3.70;1.40;;;;;;;29.26;42.97;100945.90;1562346;92;21144;-50
2022/06/09 12:19:36;;;;;;;4.33;1.27;;;;;;;29.32;42.80;100947.98;1562664;92;21067;-49